createdAt,value
2022-08-19T00:00:51.323Z,9.27
2022-08-19T00:03:18.057Z,8.90
2022-08-19T00:05:44.338Z,8.27
2022-08-19T00:08:10.741Z,8.68
2022-08-19T00:10:36.999Z,8.55
2022-08-19T00:13:03.271Z,8.38
2022-08-19T00:15:29.606Z,8.45
2022-08-19T00:17:56.019Z,8.25
2022-08-19T00:20:22.474Z,8.45
2022-08-19T00:22:49.058Z,8.73
2022-08-19T00:25:16.208Z,8.25
2022-08-19T00:27:44.108Z,8.60
2022-08-19T00:30:11.398Z,8.32
2022-08-19T00:32:38.149Z,8.27
2022-08-19T00:35:04.700Z,8.93
2022-08-19T00:37:30.978Z,7.95
2022-08-19T00:39:57.405Z,8.57
2022-08-19T00:42:23.806Z,9.55
2022-08-19T00:44:51.421Z,8.88
2022-08-19T00:47:18.068Z,8.32
2022-08-19T00:49:52.070Z,8.88
2022-08-19T00:52:30.056Z,9.35
2022-08-19T00:54:57.440Z,8.88
2022-08-19T00:57:27.700Z,8.90
2022-08-19T01:00:01.585Z,8.82
2022-08-19T01:02:29.723Z,8.90
2022-08-19T01:04:56.703Z,9.35
2022-08-19T01:07:23.015Z,9.25
2022-08-19T01:09:50.504Z,9.52
2022-08-19T01:12:17.685Z,9.68
2022-08-19T01:14:44.291Z,9.68
2022-08-19T01:17:12.056Z,8.55
2022-08-19T01:19:43.955Z,8.77
2022-08-19T01:22:33.491Z,9.65
2022-08-19T01:25:00.397Z,8.40
2022-08-19T01:27:27.011Z,9.02
2022-08-19T01:29:56.632Z,8.85
2022-08-19T01:32:33.360Z,9.30
2022-08-19T01:35:02.881Z,9.20
2022-08-19T01:37:31.177Z,9.50
2022-08-19T01:39:57.556Z,8.82
2022-08-19T01:42:29.963Z,8.98
2022-08-19T01:44:57.035Z,9.68
2022-08-19T01:47:23.569Z,9.45
2022-08-19T01:49:49.853Z,10.77
2022-08-19T01:52:16.124Z,9.55
2022-08-19T01:54:42.431Z,9.73
2022-08-19T01:57:10.213Z,9.55
2022-08-19T01:59:37.379Z,9.57
2022-08-19T02:02:08.394Z,9.63
2022-08-19T02:04:35.128Z,9.50
2022-08-19T02:07:01.574Z,10.07
2022-08-19T02:09:27.875Z,10.18
2022-08-19T02:11:54.361Z,9.48
2022-08-19T02:14:20.640Z,9.65
2022-08-19T02:16:46.930Z,9.95
2022-08-19T02:19:13.828Z,9.65
2022-08-19T02:21:40.109Z,9.93
2022-08-19T02:24:06.466Z,9.48
2022-08-19T02:26:33.323Z,9.95
2022-08-19T02:28:59.693Z,9.43
2022-08-19T02:31:26.931Z,10.40
2022-08-19T02:33:53.539Z,9.95
2022-08-19T02:36:23.189Z,10.13
2022-08-19T02:38:54.386Z,9.48
2022-08-19T02:41:23.403Z,9.63
2022-08-19T02:44:29.497Z,9.75
2022-08-19T02:46:39.576Z,9.23
2022-08-19T02:49:07.208Z,9.68
2022-08-19T02:51:35.601Z,8.25
2022-08-19T02:54:02.413Z,9.20
2022-08-19T02:56:28.715Z,10.07
2022-08-19T02:58:55.832Z,8.55
2022-08-19T03:01:23.802Z,8.90
2022-08-19T03:03:50.583Z,8.63
2022-08-19T03:06:17.451Z,8.75
2022-08-19T03:08:45.236Z,9.50
2022-08-19T03:11:18.769Z,8.80
2022-08-19T03:13:45.271Z,9.25
2022-08-19T03:16:12.021Z,9.18
2022-08-19T03:18:38.697Z,8.32
2022-08-19T03:21:06.661Z,10.70
2022-08-19T03:23:33.545Z,9.05
2022-08-19T03:26:03.942Z,9.13
2022-08-19T03:28:42.959Z,8.25
2022-08-19T03:31:45.514Z,7.88
2022-08-19T03:34:02.713Z,8.30
2022-08-19T03:36:30.081Z,8.43
2022-08-19T03:38:59.696Z,8.60
2022-08-19T03:41:27.409Z,9.00
2022-08-19T03:44:16.586Z,8.18
2022-08-19T03:46:44.687Z,8.00
2022-08-19T03:49:11.120Z,8.40
2022-08-19T03:51:42.345Z,8.82
2022-08-19T03:54:10.219Z,8.65
2022-08-19T03:56:38.061Z,9.27
2022-08-19T03:59:05.105Z,9.38
2022-08-19T04:01:35.492Z,9.55
2022-08-19T04:04:02.159Z,9.07
2022-08-19T04:06:31.166Z,10.32
2022-08-19T04:08:58.961Z,9.15
2022-08-19T04:11:43.054Z,9.30
2022-08-19T04:14:11.548Z,9.85
2022-08-19T04:16:38.305Z,9.77
2022-08-19T04:19:06.105Z,8.98
2022-08-19T04:21:32.397Z,9.20
2022-08-19T04:23:58.792Z,9.75
2022-08-19T04:26:26.998Z,8.93
2022-08-19T04:28:53.600Z,8.95
2022-08-19T04:31:22.031Z,8.43
2022-08-19T04:33:48.333Z,8.95
2022-08-19T04:36:33.858Z,11.10
2022-08-19T04:39:03.385Z,8.98
2022-08-19T04:41:48.491Z,8.52
2022-08-19T04:44:15.349Z,8.35
2022-08-19T04:46:51.611Z,8.57
2022-08-19T04:49:19.412Z,8.30
2022-08-19T04:51:46.526Z,8.30
2022-08-19T04:54:13.247Z,8.60
2022-08-19T04:56:40.792Z,8.73
2022-08-19T04:59:07.460Z,8.43
2022-08-19T05:01:34.296Z,8.70
2022-08-19T05:04:01.873Z,9.75
2022-08-19T05:06:29.656Z,8.65
2022-08-19T05:08:55.993Z,8.60
2022-08-19T05:11:26.561Z,9.40
2022-08-19T05:13:53.468Z,9.00
2022-08-19T05:16:20.629Z,9.13
2022-08-19T05:19:06.002Z,8.95
2022-08-19T05:21:51.204Z,9.07
2022-08-19T05:24:20.207Z,10.70
2022-08-19T05:26:47.550Z,11.02
2022-08-19T05:29:18.216Z,8.88
2022-08-19T05:31:44.633Z,11.93
2022-08-19T05:34:20.082Z,10.90
2022-08-19T05:36:46.843Z,9.90
2022-08-19T05:39:15.760Z,10.30
2022-08-19T05:41:45.896Z,12.27
2022-08-19T05:44:12.169Z,11.52
2022-08-19T05:46:38.975Z,11.40
2022-08-19T05:49:08.338Z,11.38
2022-08-19T05:51:35.971Z,11.52
2022-08-19T05:54:03.776Z,11.38
2022-08-19T05:56:31.736Z,15.13
2022-08-19T05:58:59.466Z,12.98
2022-08-19T06:01:29.603Z,14.23
2022-08-19T06:03:56.236Z,14.55
2022-08-19T06:06:22.798Z,14.40
2022-08-19T06:08:51.535Z,13.93
2022-08-19T06:11:17.882Z,16.42
2022-08-19T06:13:44.750Z,13.95
2022-08-19T06:16:11.054Z,14.55
2022-08-19T06:18:37.612Z,15.60
2022-08-19T06:21:05.119Z,15.07
2022-08-19T06:23:31.733Z,15.10
2022-08-19T06:25:57.996Z,16.15
2022-08-19T06:28:24.619Z,16.88
2022-08-19T06:30:52.212Z,18.05
2022-08-19T06:33:18.660Z,13.73
2022-08-19T06:38:16.457Z,15.43
2022-08-19T06:43:16.695Z,16.33
2022-08-19T06:45:44.825Z,15.95
2022-08-19T06:48:14.203Z,17.02
2022-08-19T06:50:40.952Z,17.77
2022-08-19T06:53:07.609Z,17.67
2022-08-19T06:55:33.955Z,17.85
2022-08-19T06:58:03.264Z,17.35
2022-08-19T07:03:06.069Z,17.60
2022-08-19T07:05:38.496Z,17.15
2022-08-19T07:08:06.980Z,17.45
2022-08-19T07:10:34.503Z,17.88
2022-08-19T07:13:01.285Z,14.90
2022-08-19T07:15:28.093Z,17.23
2022-08-19T07:17:55.479Z,14.57
2022-08-19T07:20:22.316Z,15.63
2022-08-19T07:22:56.092Z,15.13
2022-08-19T07:25:23.197Z,15.57
2022-08-19T07:27:59.389Z,14.40
2022-08-19T07:30:28.061Z,13.75
2022-08-19T07:32:54.456Z,15.93
2022-08-19T07:35:21.408Z,14.65
2022-08-19T07:37:47.889Z,15.20
2022-08-19T07:40:14.500Z,13.90
2022-08-19T07:42:41.085Z,14.82
2022-08-19T07:45:07.863Z,15.77
2022-08-19T07:47:48.906Z,13.80
2022-08-19T07:50:21.825Z,13.70
2022-08-19T07:52:50.514Z,13.77
2022-08-19T07:55:41.582Z,14.98
2022-08-19T07:58:05.871Z,13.93
2022-08-19T08:00:32.227Z,13.52
2022-08-19T08:02:58.633Z,13.32
2022-08-19T08:05:46.884Z,12.77
2022-08-19T08:08:45.252Z,11.90
2022-08-19T08:11:15.726Z,12.82
2022-08-19T08:13:42.630Z,11.80
2022-08-19T08:16:10.206Z,12.25
2022-08-19T08:18:43.096Z,11.52
2022-08-19T08:21:09.767Z,11.02
2022-08-19T08:23:36.555Z,11.00
2022-08-19T08:26:06.084Z,10.93
2022-08-19T08:28:32.955Z,10.02
2022-08-19T08:30:59.444Z,9.90
2022-08-19T08:33:32.687Z,9.43
2022-08-19T08:36:00.866Z,9.87
2022-08-19T08:38:27.248Z,10.18
2022-08-19T08:40:59.861Z,9.40
2022-08-19T08:43:32.443Z,9.35
2022-08-19T08:46:16.190Z,8.63
2022-08-19T08:48:56.739Z,9.38
2022-08-19T08:51:25.158Z,9.85
2022-08-19T08:53:57.072Z,8.57
2022-08-19T08:56:23.961Z,9.65
2022-08-19T08:58:55.391Z,9.15
2022-08-19T09:01:24.168Z,9.32
2022-08-19T09:03:56.834Z,9.07
2022-08-19T09:06:47.663Z,9.82
2022-08-19T09:09:14.777Z,8.23
2022-08-19T09:11:48.407Z,10.73
2022-08-19T09:14:34.924Z,9.35
2022-08-19T09:17:04.284Z,8.68
2022-08-19T09:19:30.791Z,8.38
2022-08-19T09:21:57.380Z,8.05
2022-08-19T09:24:23.673Z,8.27
2022-08-19T09:26:57.408Z,8.35
2022-08-19T09:29:23.744Z,8.48
2022-08-19T09:31:50.836Z,7.80
2022-08-19T09:34:21.130Z,8.50
2022-08-19T09:36:50.437Z,8.63
2022-08-19T09:39:17.694Z,8.68
2022-08-19T09:41:47.481Z,8.10
2022-08-19T09:44:15.468Z,8.40
2022-08-19T09:46:41.730Z,8.07
2022-08-19T09:49:10.452Z,7.80
2022-08-19T09:51:40.799Z,7.75
2022-08-19T09:54:07.394Z,7.50
2022-08-19T09:56:37.776Z,7.93
2022-08-19T09:59:04.672Z,7.93
2022-08-19T10:01:32.350Z,7.97
2022-08-19T10:04:00.325Z,7.15
2022-08-19T10:06:45.589Z,6.75
2022-08-19T10:09:13.808Z,8.00
2022-08-19T10:11:46.180Z,8.35
2022-08-19T10:14:17.872Z,7.88
2022-08-19T10:16:44.519Z,6.88
2022-08-19T10:19:26.549Z,8.35
2022-08-19T10:21:53.621Z,7.13
2022-08-19T10:24:21.327Z,7.40
2022-08-19T10:26:55.918Z,7.80
2022-08-19T10:29:32.789Z,6.97
2022-08-19T10:32:03.003Z,5.30
2022-08-19T10:34:30.453Z,6.40
2022-08-19T10:37:00.570Z,5.47
2022-08-19T10:39:30.667Z,6.88
2022-08-19T10:41:57.793Z,5.75
2022-08-19T10:44:24.848Z,5.70
2022-08-19T10:46:59.783Z,6.07
2022-08-19T10:49:26.238Z,5.07
2022-08-19T10:52:13.095Z,5.18
2022-08-19T10:55:05.295Z,5.40
2022-08-19T10:57:59.388Z,4.53
2022-08-19T11:00:21.565Z,4.90
2022-08-19T11:02:47.864Z,5.05
2022-08-19T11:05:15.557Z,5.30
2022-08-19T11:07:42.439Z,4.55
2022-08-19T11:10:13.021Z,4.15
2022-08-19T11:12:40.355Z,4.88
2022-08-19T11:15:08.628Z,4.53
2022-08-19T11:17:36.740Z,4.10
2022-08-19T11:20:05.937Z,4.40
2022-08-19T11:22:35.398Z,3.80
2022-08-19T11:25:05.840Z,3.90
2022-08-19T11:27:32.155Z,3.42
2022-08-19T11:29:58.467Z,4.07
2022-08-19T11:32:24.808Z,3.80
2022-08-19T11:34:51.069Z,4.18
2022-08-19T11:37:17.413Z,4.07
2022-08-19T11:39:44.373Z,4.28
2022-08-19T11:42:39.060Z,3.97
2022-08-19T11:47:31.653Z,3.92
2022-08-19T11:49:58.092Z,3.75
2022-08-19T11:52:24.362Z,3.55
2022-08-19T11:54:50.692Z,3.70
2022-08-19T11:57:17.910Z,3.63
2022-08-19T11:59:48.701Z,3.30
2022-08-19T12:02:16.277Z,3.83
2022-08-19T12:04:42.683Z,3.33
2022-08-19T12:07:09.009Z,3.30
2022-08-19T12:09:36.001Z,3.70
2022-08-19T12:12:03.103Z,3.28
2022-08-19T12:14:31.556Z,3.10
2022-08-19T12:16:57.894Z,3.28
2022-08-19T12:19:25.498Z,3.20
2022-08-19T12:21:53.935Z,2.80
2022-08-19T12:24:24.386Z,2.88
2022-08-19T12:26:52.935Z,3.33
2022-08-19T12:29:23.367Z,3.00
2022-08-19T12:31:53.155Z,2.75
2022-08-19T12:34:21.050Z,2.95
2022-08-19T12:36:50.061Z,3.10
2022-08-19T12:39:16.397Z,2.70
2022-08-19T12:41:45.052Z,3.03
2022-08-19T12:44:21.036Z,2.90
2022-08-19T12:46:56.384Z,2.85
2022-08-19T12:49:47.109Z,2.97
2022-08-19T12:52:09.994Z,2.55
2022-08-19T12:54:36.948Z,2.85
2022-08-19T12:57:09.999Z,3.40
2022-08-19T12:59:37.247Z,3.03
2022-08-19T13:02:07.473Z,2.50
2022-08-19T13:04:36.356Z,3.03
2022-08-19T13:07:03.617Z,2.97
2022-08-19T13:09:32.465Z,2.60
2022-08-19T13:11:59.061Z,2.78
2022-08-19T13:14:25.369Z,3.05
2022-08-19T13:16:53.341Z,2.67
2022-08-19T13:19:21.895Z,2.28
2022-08-19T13:21:50.407Z,2.50
2022-08-19T13:24:16.927Z,2.58
2022-08-19T13:26:43.943Z,2.55
2022-08-19T13:29:28.841Z,2.65
2022-08-19T13:32:18.565Z,2.38
2022-08-19T13:34:47.444Z,2.30
2022-08-19T13:37:13.796Z,2.17
2022-08-19T13:39:40.922Z,2.35
2022-08-19T13:42:08.258Z,2.10
2022-08-19T13:44:34.761Z,2.05
2022-08-19T13:47:02.097Z,2.15
2022-08-19T13:49:31.898Z,2.20
2022-08-19T13:51:58.424Z,1.90
2022-08-19T13:54:24.726Z,1.90
2022-08-19T13:56:51.130Z,2.20
2022-08-19T13:59:18.557Z,2.00
2022-08-19T14:01:44.913Z,2.03
2022-08-19T14:04:11.327Z,2.13
2022-08-19T14:06:37.736Z,1.90
2022-08-19T14:09:04.258Z,1.75
2022-08-19T14:11:30.912Z,1.90
2022-08-19T14:13:57.345Z,2.10
2022-08-19T14:16:23.845Z,1.85
2022-08-19T14:18:50.170Z,1.80
2022-08-19T14:21:18.540Z,2.50
2022-08-19T14:23:45.451Z,2.10
2022-08-19T14:26:14.299Z,1.95
2022-08-19T14:28:42.700Z,1.95
2022-08-19T14:31:10.036Z,1.77
2022-08-19T14:33:36.343Z,2.05
2022-08-19T14:36:02.946Z,2.15
2022-08-19T14:38:32.431Z,2.15
2022-08-19T14:41:13.973Z,2.00
2022-08-19T14:43:40.322Z,1.90
2022-08-19T14:46:06.904Z,2.00
2022-08-19T14:48:33.797Z,1.92
2022-08-19T14:51:00.144Z,1.98
2022-08-19T14:53:26.616Z,2.20
2022-08-19T14:55:52.894Z,2.30
2022-08-19T14:58:29.696Z,1.85
2022-08-19T15:00:56.955Z,2.00
2022-08-19T15:03:23.269Z,1.75
2022-08-19T15:05:49.889Z,1.77
2022-08-19T15:08:16.173Z,2.00
2022-08-19T15:10:42.609Z,1.98
2022-08-19T15:13:10.771Z,2.13
2022-08-19T15:15:37.077Z,1.75
2022-08-19T15:18:04.725Z,2.00
2022-08-19T15:20:31.610Z,1.77
2022-08-19T15:22:59.506Z,1.85
2022-08-19T15:25:25.870Z,1.60
2022-08-19T15:27:53.649Z,1.63
2022-08-19T15:30:23.691Z,1.95
2022-08-19T15:32:50.011Z,2.03
2022-08-19T15:35:19.302Z,1.85
2022-08-19T15:37:46.030Z,1.70
2022-08-19T15:40:12.437Z,1.70
2022-08-19T15:42:38.989Z,1.90
2022-08-19T15:45:06.354Z,2.08
2022-08-19T15:47:35.420Z,1.50
2022-08-19T15:50:05.975Z,1.80
2022-08-19T15:52:32.280Z,1.52
2022-08-19T15:55:00.340Z,1.83
2022-08-19T15:57:26.699Z,2.38
2022-08-19T16:00:11.922Z,1.85
2022-08-19T16:02:57.251Z,1.73
2022-08-19T16:05:44.711Z,1.73
2022-08-19T16:08:14.470Z,1.90
2022-08-19T16:10:41.062Z,2.20
2022-08-19T16:13:07.406Z,2.10
2022-08-19T16:15:33.993Z,1.90
2022-08-19T16:18:04.098Z,2.00
2022-08-19T16:20:30.852Z,1.98
2022-08-19T16:22:58.405Z,1.90
2022-08-19T16:25:29.054Z,2.20
2022-08-19T16:28:08.023Z,1.80
2022-08-19T16:30:35.179Z,1.65
2022-08-19T16:33:01.557Z,1.65
2022-08-19T16:35:28.051Z,2.00
2022-08-19T16:37:54.520Z,2.35
2022-08-19T16:40:21.075Z,2.03
2022-08-19T16:42:47.420Z,1.85
2022-08-19T16:45:13.703Z,2.20
2022-08-19T16:47:40.313Z,2.00
2022-08-19T16:50:07.622Z,1.92
2022-08-19T16:52:34.784Z,1.83
2022-08-19T16:55:01.240Z,1.77
2022-08-19T16:57:27.541Z,2.00
2022-08-19T16:59:53.884Z,2.10
2022-08-19T17:02:22.582Z,2.05
2022-08-19T17:04:58.226Z,2.15
2022-08-19T17:07:25.846Z,3.90
2022-08-19T17:09:52.361Z,2.30
2022-08-19T17:12:18.619Z,2.97
2022-08-19T17:14:45.989Z,2.55
2022-08-19T17:17:13.045Z,2.25
2022-08-19T17:19:41.692Z,2.17
2022-08-19T17:22:09.113Z,2.58
2022-08-19T17:24:38.081Z,2.90
2022-08-19T17:27:07.034Z,2.78
2022-08-19T17:29:33.863Z,2.72
2022-08-19T17:32:00.253Z,3.00
2022-08-19T17:34:26.611Z,2.38
2022-08-19T17:36:56.468Z,2.33
2022-08-19T17:39:22.771Z,2.70
2022-08-19T17:41:49.883Z,2.30
2022-08-19T17:44:17.246Z,2.72
2022-08-19T17:46:46.845Z,2.13
2022-08-19T17:49:13.349Z,2.40
2022-08-19T17:51:42.302Z,2.50
2022-08-19T17:54:10.741Z,2.90
2022-08-19T17:56:38.051Z,3.88
2022-08-19T17:59:05.316Z,2.90
2022-08-19T18:01:52.249Z,2.80
2022-08-19T18:04:20.695Z,2.93
2022-08-19T18:06:53.272Z,2.85
2022-08-19T18:09:23.824Z,2.67
2022-08-19T18:11:53.037Z,2.60
2022-08-19T18:14:20.162Z,4.78
2022-08-19T18:16:46.701Z,4.07
2022-08-19T18:19:13.063Z,2.72
2022-08-19T18:21:40.761Z,2.83
2022-08-19T18:24:07.119Z,2.70
2022-08-19T18:26:33.683Z,2.90
2022-08-19T18:29:00.256Z,3.33
2022-08-19T18:31:26.578Z,2.60
2022-08-19T18:33:52.988Z,2.67
2022-08-19T18:36:37.445Z,2.53
2022-08-19T18:39:25.040Z,2.60
2022-08-19T18:42:14.784Z,2.90
2022-08-19T18:45:00.231Z,2.08
2022-08-19T18:47:45.622Z,3.40
2022-08-19T18:50:12.967Z,3.00
2022-08-19T18:52:40.229Z,3.17
2022-08-19T18:55:07.422Z,2.60
2022-08-19T18:57:33.904Z,2.65
2022-08-19T19:00:00.221Z,2.30
2022-08-19T19:02:27.717Z,3.00
2022-08-19T19:04:55.979Z,2.75
2022-08-19T19:07:22.406Z,2.97
2022-08-19T19:09:51.674Z,2.70
2022-08-19T19:12:18.400Z,3.47
2022-08-19T19:14:49.438Z,2.63
2022-08-19T19:17:16.494Z,2.45
2022-08-19T19:19:43.827Z,2.83
2022-08-19T19:22:11.909Z,2.63
2022-08-19T19:24:39.243Z,2.78
2022-08-19T19:27:10.132Z,2.83
2022-08-19T19:29:36.644Z,3.33
2022-08-19T19:32:07.805Z,2.60
2022-08-19T19:34:34.103Z,2.83
2022-08-19T19:37:00.444Z,3.60
2022-08-19T19:39:44.719Z,2.83
2022-08-19T19:42:13.691Z,2.17
2022-08-19T19:44:48.630Z,2.58
2022-08-19T19:47:15.533Z,2.42
2022-08-19T19:50:03.913Z,2.28
2022-08-19T19:52:28.164Z,2.08
2022-08-19T19:54:56.667Z,1.77
2022-08-19T20:00:25.493Z,2.20
2022-08-19T20:01:21.111Z,2.88
2022-08-19T20:02:55.154Z,2.15
2022-08-19T20:05:21.914Z,3.10
2022-08-19T20:08:08.898Z,1.92
2022-08-19T20:10:35.658Z,2.15
2022-08-19T20:13:02.421Z,2.50
2022-08-19T20:15:29.332Z,3.28
2022-08-19T20:17:55.723Z,2.83
2022-08-19T20:20:22.203Z,2.92
2022-08-19T20:22:48.518Z,4.22
2022-08-19T20:25:15.768Z,3.38
2022-08-19T20:27:42.457Z,2.42
2022-08-19T20:30:13.022Z,3.08
2022-08-19T20:32:48.265Z,2.80
2022-08-19T20:35:15.733Z,2.45
2022-08-19T20:37:42.122Z,2.65
2022-08-19T20:40:13.038Z,2.80
2022-08-19T20:42:40.373Z,2.58
2022-08-19T20:45:08.330Z,2.70
2022-08-19T20:47:44.570Z,2.58
2022-08-19T20:50:12.035Z,2.72
2022-08-19T20:52:38.558Z,2.42
2022-08-19T20:55:05.077Z,2.45
2022-08-19T20:57:31.361Z,2.33
2022-08-19T20:59:57.851Z,2.10
2022-08-19T21:02:24.934Z,2.33
2022-08-19T21:04:51.263Z,2.30
2022-08-19T21:07:17.615Z,2.33
2022-08-19T21:09:43.925Z,2.33
2022-08-19T21:12:12.784Z,2.10
2022-08-19T21:14:42.749Z,2.25
2022-08-19T21:17:09.068Z,2.20
2022-08-19T21:19:35.423Z,2.30
2022-08-19T21:22:02.242Z,2.20
2022-08-19T21:24:30.143Z,1.90
2022-08-19T21:26:58.384Z,2.25
2022-08-19T21:29:24.656Z,2.40
2022-08-19T21:31:51.050Z,3.50
2022-08-19T21:34:18.460Z,2.25
2022-08-19T21:36:44.780Z,2.22
2022-08-19T21:39:11.069Z,2.15
2022-08-19T21:41:40.666Z,2.13
2022-08-19T21:44:09.355Z,2.20
2022-08-19T21:46:35.657Z,2.45
2022-08-19T21:49:01.944Z,1.95
2022-08-19T21:51:28.202Z,2.38
2022-08-19T21:53:54.562Z,1.73
2022-08-19T21:56:21.060Z,1.90
2022-08-19T21:58:47.348Z,2.00
2022-08-19T22:01:13.644Z,2.53
2022-08-19T22:03:40.201Z,2.03
2022-08-19T22:06:06.684Z,1.85
2022-08-19T22:08:32.989Z,2.03
2022-08-19T22:10:59.341Z,1.95
2022-08-19T22:13:26.148Z,2.20
2022-08-19T22:15:52.557Z,1.80
2022-08-19T22:18:19.027Z,2.28
2022-08-19T22:20:45.429Z,2.22
2022-08-19T22:23:11.801Z,2.00
2022-08-19T22:25:42.056Z,2.30
2022-08-19T22:28:10.994Z,1.92
2022-08-19T22:30:39.834Z,3.20
2022-08-19T22:33:10.284Z,2.42
2022-08-19T22:35:37.688Z,1.80
2022-08-19T22:38:06.379Z,2.28
2022-08-19T22:40:33.844Z,1.98
2022-08-19T22:43:02.109Z,1.90
2022-08-19T22:45:29.217Z,1.95
2022-08-19T22:47:56.238Z,1.92
2022-08-19T22:50:22.935Z,2.15
2022-08-19T22:52:52.214Z,1.80
2022-08-19T22:55:19.024Z,2.05
2022-08-19T22:57:45.295Z,2.45
2022-08-19T23:00:13.187Z,2.17
2022-08-19T23:02:39.556Z,1.90
2022-08-19T23:05:18.944Z,2.15
2022-08-19T23:07:52.783Z,2.10
2022-08-19T23:10:26.650Z,2.00
2022-08-19T23:12:54.716Z,1.83
2022-08-19T23:15:25.562Z,1.95
2022-08-19T23:17:52.647Z,1.70
2022-08-19T23:20:19.027Z,2.00
2022-08-19T23:22:47.821Z,1.92
2022-08-19T23:25:16.145Z,1.70
2022-08-19T23:28:01.578Z,1.73
2022-08-19T23:30:28.351Z,2.08
2022-08-19T23:32:55.906Z,2.30
2022-08-19T23:35:22.760Z,2.38
2022-08-19T23:37:51.042Z,2.72
2022-08-19T23:40:21.220Z,2.00
2022-08-19T23:42:48.476Z,2.10
2022-08-19T23:45:15.257Z,2.20
2022-08-19T23:47:50.507Z,2.72
2022-08-19T23:50:16.880Z,2.58
2022-08-19T23:52:48.592Z,1.88
2022-08-19T23:55:19.493Z,2.25
2022-08-19T23:57:45.818Z,1.95
